sensor_id;sensor_type;location;lat;lon;timestamp;noise_LAeq;noise_LA_min;noise_LA_max;noise_LA01;noise_LA95
70245;Laerm;57637;49.272;8.590;2023-03-01T00:01:04;47.09;40.82;52.78;;
70245;Laerm;57637;49.272;8.590;2023-03-01T00:03:30;46.66;41.28;53.09;;
70245;Laerm;57637;49.272;8.590;2023-03-01T00:05:55;47.27;43.28;52.05;;
70245;Laerm;57637;49.272;8.590;2023-03-01T00:08:21;47.74;42.29;53.05;;
70245;Laerm;57637;49.272;8.590;2023-03-01T00:10:46;48.19;43.12;53.60;;
70245;Laerm;57637;49.272;8.590;2023-03-01T00:13:11;47.61;42.73;53.63;;
70245;Laerm;57637;49.272;8.590;2023-03-01T00:15:40;45.98;41.61;52.56;;
70245;Laerm;57637;49.272;8.590;2023-03-01T00:18:07;46.81;42.39;52.03;;
70245;Laerm;57637;49.272;8.590;2023-03-01T00:20:33;47.10;42.98;56.13;;
70245;Laerm;57637;49.272;8.590;2023-03-01T00:22:59;47.43;40.29;56.96;;
70245;Laerm;57637;49.272;8.590;2023-03-01T00:25:24;47.38;42.73;53.04;;
70245;Laerm;57637;49.272;8.590;2023-03-01T00:27:49;46.84;42.40;52.10;;
70245;Laerm;57637;49.272;8.590;2023-03-01T00:30:15;47.75;42.34;57.38;;
70245;Laerm;57637;49.272;8.590;2023-03-01T00:32:43;47.00;42.06;53.44;;
70245;Laerm;57637;49.272;8.590;2023-03-01T00:35:09;49.37;43.64;59.80;;
70245;Laerm;57637;49.272;8.590;2023-03-01T00:37:34;48.22;42.46;54.27;;
70245;Laerm;57637;49.272;8.590;2023-03-01T00:39:59;48.38;43.00;54.90;;
70245;Laerm;57637;49.272;8.590;2023-03-01T00:42:25;48.06;41.92;55.63;;
70245;Laerm;57637;49.272;8.590;2023-03-01T00:44:50;47.81;42.99;56.87;;
70245;Laerm;57637;49.272;8.590;2023-03-01T00:47:16;47.29;41.27;54.50;;
70245;Laerm;57637;49.272;8.590;2023-03-01T00:49:41;46.13;40.84;52.92;;
70245;Laerm;57637;49.272;8.590;2023-03-01T00:52:06;47.11;41.70;54.26;;
70245;Laerm;57637;49.272;8.590;2023-03-01T00:54:32;47.19;42.50;52.97;;
70245;Laerm;57637;49.272;8.590;2023-03-01T00:56:57;48.01;43.25;53.76;;
70245;Laerm;57637;49.272;8.590;2023-03-01T00:59:22;47.32;40.91;54.07;;
70245;Laerm;57637;49.272;8.590;2023-03-01T01:01:48;45.78;40.52;51.54;;
70245;Laerm;57637;49.272;8.590;2023-03-01T01:04:13;46.93;42.27;52.69;;
70245;Laerm;57637;49.272;8.590;2023-03-01T01:06:44;46.80;41.84;51.41;;
70245;Laerm;57637;49.272;8.590;2023-03-01T01:09:12;46.42;41.05;52.58;;
70245;Laerm;57637;49.272;8.590;2023-03-01T01:11:48;47.97;41.18;59.79;;
70245;Laerm;57637;49.272;8.590;2023-03-01T01:14:14;46.99;41.51;55.64;;
70245;Laerm;57637;49.272;8.590;2023-03-01T01:16:39;48.06;43.04;53.59;;
70245;Laerm;57637;49.272;8.590;2023-03-01T01:19:05;47.49;42.18;56.40;;
70245;Laerm;57637;49.272;8.590;2023-03-01T01:21:31;46.49;42.17;51.37;;
70245;Laerm;57637;49.272;8.590;2023-03-01T01:23:57;46.69;42.06;51.75;;
70245;Laerm;57637;49.272;8.590;2023-03-01T01:26:31;46.68;41.33;51.72;;
70245;Laerm;57637;49.272;8.590;2023-03-01T01:28:58;46.40;41.22;51.46;;
70245;Laerm;57637;49.272;8.590;2023-03-01T01:31:24;47.77;43.47;52.02;;
70245;Laerm;57637;49.272;8.590;2023-03-01T01:33:51;47.93;43.38;54.01;;
70245;Laerm;57637;49.272;8.590;2023-03-01T01:36:16;47.98;43.05;52.48;;
70245;Laerm;57637;49.272;8.590;2023-03-01T01:38:42;46.81;42.33;51.75;;
70245;Laerm;57637;49.272;8.590;2023-03-01T01:41:08;46.50;41.97;53.41;;
70245;Laerm;57637;49.272;8.590;2023-03-01T01:43:42;46.66;41.83;54.13;;
70245;Laerm;57637;49.272;8.590;2023-03-01T01:48:53;46.28;41.88;50.59;;
70245;Laerm;57637;49.272;8.590;2023-03-01T01:51:24;47.00;43.10;51.22;;
70245;Laerm;57637;49.272;8.590;2023-03-01T01:53:54;46.81;42.66;51.62;;
70245;Laerm;57637;49.272;8.590;2023-03-01T01:56:23;46.48;41.63;52.97;;
70245;Laerm;57637;49.272;8.590;2023-03-01T01:58:49;47.10;43.04;53.71;;
70245;Laerm;57637;49.272;8.590;2023-03-01T02:01:15;47.63;43.42;53.91;;
70245;Laerm;57637;49.272;8.590;2023-03-01T02:03:43;47.69;43.84;52.47;;
70245;Laerm;57637;49.272;8.590;2023-03-01T02:08:37;47.78;42.86;53.11;;
70245;Laerm;57637;49.272;8.590;2023-03-01T02:11:04;47.73;42.88;52.80;;
70245;Laerm;57637;49.272;8.590;2023-03-01T02:13:31;47.44;42.43;53.48;;
70245;Laerm;57637;49.272;8.590;2023-03-01T02:15:57;47.66;41.76;53.15;;
70245;Laerm;57637;49.272;8.590;2023-03-01T02:18:23;48.53;44.83;57.36;;
70245;Laerm;57637;49.272;8.590;2023-03-01T02:23:14;48.35;43.68;54.26;;
70245;Laerm;57637;49.272;8.590;2023-03-01T02:28:35;48.47;44.06;53.88;;
70245;Laerm;57637;49.272;8.590;2023-03-01T02:31:03;48.06;44.27;52.64;;
70245;Laerm;57637;49.272;8.590;2023-03-01T02:33:48;48.64;44.36;53.66;;
70245;Laerm;57637;49.272;8.590;2023-03-01T02:36:17;49.25;44.92;55.80;;
70245;Laerm;57637;49.272;8.590;2023-03-01T02:38:44;49.54;45.17;57.03;;
70245;Laerm;57637;49.272;8.590;2023-03-01T02:41:11;49.30;44.90;54.31;;
70245;Laerm;57637;49.272;8.590;2023-03-01T02:43:40;49.28;44.75;55.49;;
70245;Laerm;57637;49.272;8.590;2023-03-01T02:46:15;49.86;45.21;55.83;;
70245;Laerm;57637;49.272;8.590;2023-03-01T02:48:48;50.08;45.27;55.17;;
70245;Laerm;57637;49.272;8.590;2023-03-01T02:51:27;50.51;45.85;58.24;;
70245;Laerm;57637;49.272;8.590;2023-03-01T02:56:42;50.34;45.43;56.71;;
70245;Laerm;57637;49.272;8.590;2023-03-01T02:59:08;50.44;45.51;56.75;;
70245;Laerm;57637;49.272;8.590;2023-03-01T03:01:34;49.89;45.26;55.25;;
70245;Laerm;57637;49.272;8.590;2023-03-01T03:04:07;51.94;46.50;58.44;;
70245;Laerm;57637;49.272;8.590;2023-03-01T03:06:33;52.50;45.73;57.75;;
70245;Laerm;57637;49.272;8.590;2023-03-01T03:08:59;50.56;46.14;55.93;;
70245;Laerm;57637;49.272;8.590;2023-03-01T03:11:25;51.20;45.25;58.97;;
70245;Laerm;57637;49.272;8.590;2023-03-01T03:13:50;52.08;45.76;63.17;;
70245;Laerm;57637;49.272;8.590;2023-03-01T03:16:17;51.92;47.02;60.89;;
70245;Laerm;57637;49.272;8.590;2023-03-01T03:18:42;52.29;47.30;56.98;;
70245;Laerm;57637;49.272;8.590;2023-03-01T03:21:09;53.05;48.43;60.42;;
70245;Laerm;57637;49.272;8.590;2023-03-01T03:23:36;52.20;47.42;58.05;;
70245;Laerm;57637;49.272;8.590;2023-03-01T03:26:03;51.55;47.14;56.09;;
70245;Laerm;57637;49.272;8.590;2023-03-01T03:28:30;51.76;46.73;57.87;;
70245;Laerm;57637;49.272;8.590;2023-03-01T03:30:55;51.76;46.57;58.40;;
70245;Laerm;57637;49.272;8.590;2023-03-01T03:33:21;49.49;45.34;53.64;;
70245;Laerm;57637;49.272;8.590;2023-03-01T03:35:48;49.49;45.72;54.17;;
70245;Laerm;57637;49.272;8.590;2023-03-01T03:38:16;49.28;44.32;54.70;;
70245;Laerm;57637;49.272;8.590;2023-03-01T03:40:51;50.44;44.30;57.87;;
70245;Laerm;57637;49.272;8.590;2023-03-01T03:43:20;49.96;45.42;55.93;;
70245;Laerm;57637;49.272;8.590;2023-03-01T03:45:47;50.27;44.93;55.26;;
70245;Laerm;57637;49.272;8.590;2023-03-01T03:48:13;51.09;46.85;59.17;;
70245;Laerm;57637;49.272;8.590;2023-03-01T03:50:40;52.27;46.70;58.15;;
70245;Laerm;57637;49.272;8.590;2023-03-01T03:53:11;51.17;46.52;57.06;;
70245;Laerm;57637;49.272;8.590;2023-03-01T03:55:37;50.00;45.27;55.34;;
70245;Laerm;57637;49.272;8.590;2023-03-01T03:58:08;50.29;45.71;54.70;;
70245;Laerm;57637;49.272;8.590;2023-03-01T04:00:40;50.61;46.31;57.12;;
70245;Laerm;57637;49.272;8.590;2023-03-01T04:03:06;50.72;45.71;56.66;;
70245;Laerm;57637;49.272;8.590;2023-03-01T04:05:32;51.06;46.88;55.86;;
70245;Laerm;57637;49.272;8.590;2023-03-01T04:07:58;49.91;45.57;55.72;;
70245;Laerm;57637;49.272;8.590;2023-03-01T04:10:31;50.17;46.16;55.35;;
70245;Laerm;57637;49.272;8.590;2023-03-01T04:12:57;50.46;45.44;54.61;;
70245;Laerm;57637;49.272;8.590;2023-03-01T04:15:24;50.77;45.94;57.53;;
70245;Laerm;57637;49.272;8.590;2023-03-01T04:17:51;51.53;47.13;57.67;;
70245;Laerm;57637;49.272;8.590;2023-03-01T04:20:20;51.55;47.20;56.89;;
70245;Laerm;57637;49.272;8.590;2023-03-01T04:22:56;51.77;47.62;57.01;;
70245;Laerm;57637;49.272;8.590;2023-03-01T04:25:25;52.15;48.11;59.40;;
70245;Laerm;57637;49.272;8.590;2023-03-01T04:27:50;51.66;47.30;55.77;;
70245;Laerm;57637;49.272;8.590;2023-03-01T04:30:16;52.48;48.76;56.76;;
70245;Laerm;57637;49.272;8.590;2023-03-01T04:32:41;53.34;49.21;58.44;;
70245;Laerm;57637;49.272;8.590;2023-03-01T04:35:07;53.75;49.11;58.47;;
70245;Laerm;57637;49.272;8.590;2023-03-01T04:37:33;53.34;49.88;58.17;;
70245;Laerm;57637;49.272;8.590;2023-03-01T04:40:00;54.00;49.42;59.00;;
70245;Laerm;57637;49.272;8.590;2023-03-01T04:42:25;54.25;50.35;58.22;;
70245;Laerm;57637;49.272;8.590;2023-03-01T04:44:50;53.86;50.07;58.26;;
70245;Laerm;57637;49.272;8.590;2023-03-01T04:47:16;53.48;48.70;57.89;;
70245;Laerm;57637;49.272;8.590;2023-03-01T04:49:42;53.73;49.60;61.92;;
70245;Laerm;57637;49.272;8.590;2023-03-01T04:52:07;53.81;50.44;57.94;;
70245;Laerm;57637;49.272;8.590;2023-03-01T04:54:33;54.08;50.28;60.65;;
70245;Laerm;57637;49.272;8.590;2023-03-01T04:57:00;54.10;49.64;59.25;;
70245;Laerm;57637;49.272;8.590;2023-03-01T04:59:26;54.87;50.31;58.64;;
70245;Laerm;57637;49.272;8.590;2023-03-01T05:01:53;53.62;49.75;62.56;;
70245;Laerm;57637;49.272;8.590;2023-03-01T05:04:23;53.16;48.91;57.45;;
70245;Laerm;57637;49.272;8.590;2023-03-01T05:06:48;53.41;49.16;63.86;;
70245;Laerm;57637;49.272;8.590;2023-03-01T05:09:14;53.00;49.42;56.51;;
70245;Laerm;57637;49.272;8.590;2023-03-01T05:11:39;53.27;49.59;61.16;;
70245;Laerm;57637;49.272;8.590;2023-03-01T05:14:06;52.93;48.73;57.33;;
70245;Laerm;57637;49.272;8.590;2023-03-01T05:16:32;52.95;48.32;61.80;;
70245;Laerm;57637;49.272;8.590;2023-03-01T05:18:58;51.80;46.97;57.86;;
70245;Laerm;57637;49.272;8.590;2023-03-01T05:21:24;52.48;48.49;57.29;;
70245;Laerm;57637;49.272;8.590;2023-03-01T05:23:50;52.72;48.78;57.59;;
70245;Laerm;57637;49.272;8.590;2023-03-01T05:26:18;51.68;47.41;61.52;;
70245;Laerm;57637;49.272;8.590;2023-03-01T05:28:45;52.42;48.65;57.29;;
70245;Laerm;57637;49.272;8.590;2023-03-01T05:31:10;51.43;47.78;58.16;;
70245;Laerm;57637;49.272;8.590;2023-03-01T05:33:37;50.00;45.94;54.22;;
70245;Laerm;57637;49.272;8.590;2023-03-01T05:36:03;50.50;46.75;54.53;;
70245;Laerm;57637;49.272;8.590;2023-03-01T05:38:29;50.35;46.32;56.32;;
70245;Laerm;57637;49.272;8.590;2023-03-01T05:41:03;50.66;47.51;54.47;;
70245;Laerm;57637;49.272;8.590;2023-03-01T05:43:32;51.11;48.03;54.60;;
70245;Laerm;57637;49.272;8.590;2023-03-01T05:46:00;50.76;46.88;53.76;;
70245;Laerm;57637;49.272;8.590;2023-03-01T05:48:26;51.18;47.45;54.69;;
70245;Laerm;57637;49.272;8.590;2023-03-01T05:50:51;51.44;48.21;54.57;;
70245;Laerm;57637;49.272;8.590;2023-03-01T05:53:18;51.43;48.17;55.01;;
70245;Laerm;57637;49.272;8.590;2023-03-01T05:55:47;51.76;48.59;55.33;;
70245;Laerm;57637;49.272;8.590;2023-03-01T05:58:17;51.53;48.14;55.91;;
70245;Laerm;57637;49.272;8.590;2023-03-01T06:00:44;52.22;48.26;59.90;;
70245;Laerm;57637;49.272;8.590;2023-03-01T06:03:12;51.81;48.25;63.18;;
70245;Laerm;57637;49.272;8.590;2023-03-01T06:05:39;52.57;47.62;65.99;;
70245;Laerm;57637;49.272;8.590;2023-03-01T06:08:05;52.49;48.17;67.46;;
70245;Laerm;57637;49.272;8.590;2023-03-01T06:10:31;52.94;48.04;67.56;;
70245;Laerm;57637;49.272;8.590;2023-03-01T06:12:57;55.81;49.21;74.19;;
70245;Laerm;57637;49.272;8.590;2023-03-01T06:15:24;55.19;48.49;70.88;;
70245;Laerm;57637;49.272;8.590;2023-03-01T06:17:50;58.77;50.00;75.74;;
70245;Laerm;57637;49.272;8.590;2023-03-01T06:20:18;59.48;50.33;76.60;;
70245;Laerm;57637;49.272;8.590;2023-03-01T06:22:44;60.14;50.21;72.52;;
70245;Laerm;57637;49.272;8.590;2023-03-01T06:25:11;62.48;51.13;78.32;;
70245;Laerm;57637;49.272;8.590;2023-03-01T06:27:37;59.91;49.72;77.20;;
70245;Laerm;57637;49.272;8.590;2023-03-01T06:30:04;56.55;50.30;76.40;;
70245;Laerm;57637;49.272;8.590;2023-03-01T06:32:30;60.17;50.12;78.20;;
70245;Laerm;57637;49.272;8.590;2023-03-01T06:34:56;58.15;49.75;74.34;;
70245;Laerm;57637;49.272;8.590;2023-03-01T06:37:23;55.37;49.59;72.34;;
70245;Laerm;57637;49.272;8.590;2023-03-01T06:39:49;53.39;49.72;61.30;;
70245;Laerm;57637;49.272;8.590;2023-03-01T06:42:14;52.92;49.33;62.24;;
70245;Laerm;57637;49.272;8.590;2023-03-01T06:44:39;52.87;49.74;65.54;;
70245;Laerm;57637;49.272;8.590;2023-03-01T06:47:05;56.35;49.56;76.76;;
70245;Laerm;57637;49.272;8.590;2023-03-01T06:49:30;53.02;49.39;58.98;;
70245;Laerm;57637;49.272;8.590;2023-03-01T06:51:56;53.14;49.98;57.60;;
70245;Laerm;57637;49.272;8.590;2023-03-01T06:54:22;53.35;49.25;57.32;;
70245;Laerm;57637;49.272;8.590;2023-03-01T06:56:48;53.12;49.73;57.71;;
70245;Laerm;57637;49.272;8.590;2023-03-01T06:59:14;53.36;49.54;58.41;;
70245;Laerm;57637;49.272;8.590;2023-03-01T07:01:40;52.78;49.76;57.76;;
70245;Laerm;57637;49.272;8.590;2023-03-01T07:04:05;52.30;48.12;57.25;;
70245;Laerm;57637;49.272;8.590;2023-03-01T07:06:31;53.00;49.16;57.16;;
70245;Laerm;57637;49.272;8.590;2023-03-01T07:08:56;53.55;49.68;58.72;;
70245;Laerm;57637;49.272;8.590;2023-03-01T07:11:22;53.24;49.69;57.21;;
70245;Laerm;57637;49.272;8.590;2023-03-01T07:13:51;53.53;49.14;63.18;;
70245;Laerm;57637;49.272;8.590;2023-03-01T07:16:16;53.30;48.35;69.38;;
70245;Laerm;57637;49.272;8.590;2023-03-01T07:18:42;53.11;48.94;65.49;;
70245;Laerm;57637;49.272;8.590;2023-03-01T07:21:09;52.34;48.59;59.18;;
70245;Laerm;57637;49.272;8.590;2023-03-01T07:23:36;52.75;49.10;63.38;;
70245;Laerm;57637;49.272;8.590;2023-03-01T07:26:01;52.58;47.14;61.22;;
70245;Laerm;57637;49.272;8.590;2023-03-01T07:28:27;52.23;48.26;57.50;;
70245;Laerm;57637;49.272;8.590;2023-03-01T07:30:53;51.79;47.86;56.94;;
70245;Laerm;57637;49.272;8.590;2023-03-01T07:33:18;51.57;47.71;57.92;;
70245;Laerm;57637;49.272;8.590;2023-03-01T07:35:44;51.97;47.58;59.58;;
70245;Laerm;57637;49.272;8.590;2023-03-01T07:38:09;51.47;47.46;60.47;;
70245;Laerm;57637;49.272;8.590;2023-03-01T07:40:35;52.15;47.29;60.95;;
70245;Laerm;57637;49.272;8.590;2023-03-01T07:43:00;53.16;47.15;67.27;;
70245;Laerm;57637;49.272;8.590;2023-03-01T07:45:27;57.10;47.54;71.45;;
70245;Laerm;57637;49.272;8.590;2023-03-01T07:47:53;52.02;46.03;68.27;;
70245;Laerm;57637;49.272;8.590;2023-03-01T07:50:19;50.18;46.67;63.37;;
70245;Laerm;57637;49.272;8.590;2023-03-01T07:52:45;49.82;45.09;56.58;;
70245;Laerm;57637;49.272;8.590;2023-03-01T07:55:11;48.96;45.49;58.10;;
70245;Laerm;57637;49.272;8.590;2023-03-01T07:57:36;48.98;43.78;58.61;;
70245;Laerm;57637;49.272;8.590;2023-03-01T08:00:02;48.98;45.20;63.07;;
70245;Laerm;57637;49.272;8.590;2023-03-01T08:02:28;48.72;44.22;57.88;;
70245;Laerm;57637;49.272;8.590;2023-03-01T08:04:53;47.55;43.63;54.09;;
70245;Laerm;57637;49.272;8.590;2023-03-01T08:07:19;49.21;43.63;64.52;;
70245;Laerm;57637;49.272;8.590;2023-03-01T08:09:44;47.96;43.44;60.52;;
70245;Laerm;57637;49.272;8.590;2023-03-01T08:12:10;50.10;44.12;64.49;;
70245;Laerm;57637;49.272;8.590;2023-03-01T08:14:35;47.83;43.22;61.32;;
70245;Laerm;57637;49.272;8.590;2023-03-01T08:17:00;49.28;42.59;63.67;;
70245;Laerm;57637;49.272;8.590;2023-03-01T08:19:28;51.15;43.81;64.09;;
70245;Laerm;57637;49.272;8.590;2023-03-01T08:21:54;49.66;41.76;65.21;;
70245;Laerm;57637;49.272;8.590;2023-03-01T08:24:20;46.78;41.79;60.88;;
70245;Laerm;57637;49.272;8.590;2023-03-01T08:26:45;50.31;42.12;61.47;;
70245;Laerm;57637;49.272;8.590;2023-03-01T08:29:11;49.01;42.64;64.16;;
70245;Laerm;57637;49.272;8.590;2023-03-01T08:31:38;46.93;42.40;57.84;;
70245;Laerm;57637;49.272;8.590;2023-03-01T08:34:09;48.43;42.85;62.48;;
70245;Laerm;57637;49.272;8.590;2023-03-01T08:36:37;53.28;43.82;66.83;;
70245;Laerm;57637;49.272;8.590;2023-03-01T08:39:04;50.54;43.42;68.41;;
70245;Laerm;57637;49.272;8.590;2023-03-01T08:41:29;50.22;42.42;70.36;;
70245;Laerm;57637;49.272;8.590;2023-03-01T08:43:55;48.60;43.76;56.69;;
70245;Laerm;57637;49.272;8.590;2023-03-01T08:46:32;49.63;42.98;65.57;;
70245;Laerm;57637;49.272;8.590;2023-03-01T08:48:59;50.71;42.88;60.06;;
70245;Laerm;57637;49.272;8.590;2023-03-01T08:51:26;47.10;42.99;58.96;;
70245;Laerm;57637;49.272;8.590;2023-03-01T08:53:52;46.44;41.95;53.56;;
70245;Laerm;57637;49.272;8.590;2023-03-01T08:56:17;48.13;42.90;65.30;;
70245;Laerm;57637;49.272;8.590;2023-03-01T08:58:48;47.10;42.41;54.32;;
70245;Laerm;57637;49.272;8.590;2023-03-01T09:01:15;47.07;42.96;57.13;;
70245;Laerm;57637;49.272;8.590;2023-03-01T09:03:42;48.20;41.54;72.96;;
70245;Laerm;57637;49.272;8.590;2023-03-01T09:06:08;46.37;41.76;65.74;;
70245;Laerm;57637;49.272;8.590;2023-03-01T09:08:37;47.64;42.42;59.49;;
70245;Laerm;57637;49.272;8.590;2023-03-01T09:11:03;48.15;42.87;68.13;;
70245;Laerm;57637;49.272;8.590;2023-03-01T09:13:29;52.97;43.91;71.39;;
70245;Laerm;57637;49.272;8.590;2023-03-01T09:15:57;56.68;44.04;79.67;;
70245;Laerm;57637;49.272;8.590;2023-03-01T09:18:22;55.25;44.62;76.98;;
70245;Laerm;57637;49.272;8.590;2023-03-01T09:20:48;52.62;42.83;79.37;;
70245;Laerm;57637;49.272;8.590;2023-03-01T09:23:13;48.30;42.70;67.24;;
70245;Laerm;57637;49.272;8.590;2023-03-01T09:25:38;49.51;43.68;68.45;;
70245;Laerm;57637;49.272;8.590;2023-03-01T09:28:04;51.08;42.69;65.01;;
70245;Laerm;57637;49.272;8.590;2023-03-01T09:30:29;53.32;43.36;68.82;;
70245;Laerm;57637;49.272;8.590;2023-03-01T09:32:56;54.92;47.83;71.93;;
70245;Laerm;57637;49.272;8.590;2023-03-01T09:35:22;54.85;43.01;69.22;;
70245;Laerm;57637;49.272;8.590;2023-03-01T09:37:48;53.31;42.54;69.40;;
70245;Laerm;57637;49.272;8.590;2023-03-01T09:40:20;50.46;41.84;67.22;;
70245;Laerm;57637;49.272;8.590;2023-03-01T09:43:07;47.26;42.33;65.98;;
70245;Laerm;57637;49.272;8.590;2023-03-01T09:45:38;47.83;41.24;59.32;;
70245;Laerm;57637;49.272;8.590;2023-03-01T09:48:12;52.96;42.98;65.02;;
70245;Laerm;57637;49.272;8.590;2023-03-01T09:50:43;49.70;42.03;60.14;;
70245;Laerm;57637;49.272;8.590;2023-03-01T09:53:32;47.20;41.51;67.01;;
70245;Laerm;57637;49.272;8.590;2023-03-01T09:58:58;54.34;42.44;71.74;;
70245;Laerm;57637;49.272;8.590;2023-03-01T10:05:00;48.77;42.13;69.53;;
70245;Laerm;57637;49.272;8.590;2023-03-01T10:07:13;46.77;41.48;68.80;;
70245;Laerm;57637;49.272;8.590;2023-03-01T10:09:43;50.61;40.56;63.37;;
70245;Laerm;57637;49.272;8.590;2023-03-01T10:12:14;54.87;44.57;70.60;;
70245;Laerm;57637;49.272;8.590;2023-03-01T10:14:57;51.43;43.16;60.21;;
70245;Laerm;57637;49.272;8.590;2023-03-01T10:17:34;59.60;44.43;70.90;;
70245;Laerm;57637;49.272;8.590;2023-03-01T10:20:17;49.09;43.65;64.43;;
70245;Laerm;57637;49.272;8.590;2023-03-01T10:22:43;48.68;42.35;59.16;;
70245;Laerm;57637;49.272;8.590;2023-03-01T10:25:17;45.99;42.22;57.18;;
70245;Laerm;57637;49.272;8.590;2023-03-01T10:27:55;46.77;43.00;56.28;;
70245;Laerm;57637;49.272;8.590;2023-03-01T10:30:38;48.59;42.50;64.53;;
70245;Laerm;57637;49.272;8.590;2023-03-01T10:33:15;46.34;41.56;67.31;;
70245;Laerm;57637;49.272;8.590;2023-03-01T10:35:42;46.99;42.43;57.07;;
70245;Laerm;57637;49.272;8.590;2023-03-01T10:38:09;48.43;41.94;71.88;;
70245;Laerm;57637;49.272;8.590;2023-03-01T10:40:36;47.76;41.10;72.33;;
70245;Laerm;57637;49.272;8.590;2023-03-01T10:43:04;46.45;40.94;57.94;;
70245;Laerm;57637;49.272;8.590;2023-03-01T10:45:38;45.95;40.12;58.58;;
70245;Laerm;57637;49.272;8.590;2023-03-01T10:50:50;50.54;41.82;70.90;;
70245;Laerm;57637;49.272;8.590;2023-03-01T10:56:04;50.78;40.80;69.61;;
70245;Laerm;57637;49.272;8.590;2023-03-01T10:58:31;50.44;41.62;65.99;;
70245;Laerm;57637;49.272;8.590;2023-03-01T11:01:03;51.12;41.73;75.44;;
70245;Laerm;57637;49.272;8.590;2023-03-01T11:03:37;49.68;42.61;71.26;;
70245;Laerm;57637;49.272;8.590;2023-03-01T11:06:21;46.27;41.37;57.00;;
70245;Laerm;57637;49.272;8.590;2023-03-01T11:08:49;47.11;41.79;67.10;;
70245;Laerm;57637;49.272;8.590;2023-03-01T11:11:29;46.55;42.36;55.95;;
70245;Laerm;57637;49.272;8.590;2023-03-01T11:14:20;46.93;42.09;58.02;;
70245;Laerm;57637;49.272;8.590;2023-03-01T11:16:47;48.98;40.99;68.69;;
70245;Laerm;57637;49.272;8.590;2023-03-01T11:19:17;48.56;42.20;66.92;;
70245;Laerm;57637;49.272;8.590;2023-03-01T11:21:55;47.72;43.23;63.06;;
70245;Laerm;57637;49.272;8.590;2023-03-01T11:24:29;48.76;42.15;72.80;;
70245;Laerm;57637;49.272;8.590;2023-03-01T11:26:55;47.86;42.99;57.54;;
70245;Laerm;57637;49.272;8.590;2023-03-01T11:29:43;49.10;42.00;67.56;;
70245;Laerm;57637;49.272;8.590;2023-03-01T11:32:12;47.16;41.30;64.11;;
70245;Laerm;57637;49.272;8.590;2023-03-01T11:34:49;47.83;41.28;61.52;;
70245;Laerm;57637;49.272;8.590;2023-03-01T11:40:11;47.51;41.76;61.41;;
70245;Laerm;57637;49.272;8.590;2023-03-01T11:45:10;54.73;43.08;80.51;;
70245;Laerm;57637;49.272;8.590;2023-03-01T11:50:46;49.59;42.12;74.53;;
70245;Laerm;57637;49.272;8.590;2023-03-01T11:53:38;48.51;42.67;70.37;;
70245;Laerm;57637;49.272;8.590;2023-03-01T11:56:30;48.27;42.23;72.24;;
70245;Laerm;57637;49.272;8.590;2023-03-01T11:59:10;47.97;42.10;68.64;;
70245;Laerm;57637;49.272;8.590;2023-03-01T12:07:30;52.95;42.87;79.85;;
70245;Laerm;57637;49.272;8.590;2023-03-01T12:10:10;54.18;42.08;76.80;;
70245;Laerm;57637;49.272;8.590;2023-03-01T12:18:35;45.62;41.34;56.11;;
70245;Laerm;57637;49.272;8.590;2023-03-01T12:21:30;46.75;42.50;59.07;;
70245;Laerm;57637;49.272;8.590;2023-03-01T12:24:41;46.56;40.79;63.22;;
70245;Laerm;57637;49.272;8.590;2023-03-01T12:38:01;48.46;42.68;65.48;;
70245;Laerm;57637;49.272;8.590;2023-03-01T12:46:22;45.07;40.74;56.27;;
70245;Laerm;57637;49.272;8.590;2023-03-01T12:51:34;54.07;41.13;80.22;;
70245;Laerm;57637;49.272;8.590;2023-03-01T12:54:07;47.91;41.13;75.38;;
70245;Laerm;57637;49.272;8.590;2023-03-01T13:09:54;46.53;41.21;53.60;;
70245;Laerm;57637;49.272;8.590;2023-03-01T13:20:31;44.46;39.62;60.35;;
70245;Laerm;57637;49.272;8.590;2023-03-01T13:28:40;45.26;40.83;62.30;;
70245;Laerm;57637;49.272;8.590;2023-03-01T13:31:09;49.99;41.88;73.91;;
70245;Laerm;57637;49.272;8.590;2023-03-01T13:33:42;45.68;40.95;65.79;;
70245;Laerm;57637;49.272;8.590;2023-03-01T13:36:09;44.62;40.52;50.82;;
70245;Laerm;57637;49.272;8.590;2023-03-01T13:38:48;44.35;38.89;56.97;;
70245;Laerm;57637;49.272;8.590;2023-03-01T13:44:37;47.12;40.39;61.98;;
70245;Laerm;57637;49.272;8.590;2023-03-01T13:54:57;46.51;41.53;61.15;;
70245;Laerm;57637;49.272;8.590;2023-03-01T13:57:26;44.96;40.78;65.93;;
70245;Laerm;57637;49.272;8.590;2023-03-01T13:59:54;45.47;41.56;53.36;;
70245;Laerm;57637;49.272;8.590;2023-03-01T14:02:20;46.84;41.97;54.10;;
70245;Laerm;57637;49.272;8.590;2023-03-01T14:04:59;48.01;42.59;57.51;;
70245;Laerm;57637;49.272;8.590;2023-03-01T14:07:25;48.75;42.60;69.07;;
70245;Laerm;57637;49.272;8.590;2023-03-01T14:10:03;47.30;41.83;59.17;;
70245;Laerm;57637;49.272;8.590;2023-03-01T14:12:43;45.35;39.99;54.42;;
70245;Laerm;57637;49.272;8.590;2023-03-01T14:15:47;50.99;41.15;77.05;;
70245;Laerm;57637;49.272;8.590;2023-03-01T14:18:33;44.72;40.82;53.84;;
70245;Laerm;57637;49.272;8.590;2023-03-01T14:21:07;46.47;41.78;54.97;;
70245;Laerm;57637;49.272;8.590;2023-03-01T14:23:33;47.46;42.34;59.97;;
70245;Laerm;57637;49.272;8.590;2023-03-01T14:26:01;45.99;40.98;61.85;;
70245;Laerm;57637;49.272;8.590;2023-03-01T14:28:31;46.25;42.36;52.61;;
70245;Laerm;57637;49.272;8.590;2023-03-01T14:31:42;48.54;43.32;64.49;;
70245;Laerm;57637;49.272;8.590;2023-03-01T14:34:18;46.33;41.20;55.50;;
70245;Laerm;57637;49.272;8.590;2023-03-01T14:36:44;46.56;41.58;52.50;;
70245;Laerm;57637;49.272;8.590;2023-03-01T14:39:23;46.59;41.76;61.31;;
70245;Laerm;57637;49.272;8.590;2023-03-01T14:41:49;46.87;41.25;56.60;;
70245;Laerm;57637;49.272;8.590;2023-03-01T14:44:19;47.25;41.63;57.98;;
70245;Laerm;57637;49.272;8.590;2023-03-01T14:46:52;51.48;42.52;77.73;;
70245;Laerm;57637;49.272;8.590;2023-03-01T14:49:24;49.45;41.85;58.38;;
70245;Laerm;57637;49.272;8.590;2023-03-01T14:52:01;46.49;41.31;55.71;;
70245;Laerm;57637;49.272;8.590;2023-03-01T14:54:31;47.48;41.48;59.49;;
70245;Laerm;57637;49.272;8.590;2023-03-01T14:57:01;46.22;40.24;60.53;;
70245;Laerm;57637;49.272;8.590;2023-03-01T14:59:27;46.17;42.56;59.06;;
70245;Laerm;57637;49.272;8.590;2023-03-01T15:01:55;45.53;42.00;50.03;;
70245;Laerm;57637;49.272;8.590;2023-03-01T15:04:22;46.79;42.33;61.59;;
70245;Laerm;57637;49.272;8.590;2023-03-01T15:06:51;46.12;41.89;57.45;;
70245;Laerm;57637;49.272;8.590;2023-03-01T15:09:17;46.59;42.07;66.43;;
70245;Laerm;57637;49.272;8.590;2023-03-01T15:11:43;46.11;41.40;65.59;;
70245;Laerm;57637;49.272;8.590;2023-03-01T15:14:49;45.84;41.77;52.49;;
70245;Laerm;57637;49.272;8.590;2023-03-01T15:17:40;47.25;42.77;63.47;;
70245;Laerm;57637;49.272;8.590;2023-03-01T15:20:19;46.10;41.52;62.32;;
70245;Laerm;57637;49.272;8.590;2023-03-01T15:22:51;46.77;41.90;61.75;;
70245;Laerm;57637;49.272;8.590;2023-03-01T15:25:18;47.14;41.29;62.84;;
70245;Laerm;57637;49.272;8.590;2023-03-01T15:27:48;46.78;41.77;62.62;;
70245;Laerm;57637;49.272;8.590;2023-03-01T15:30:24;48.24;42.31;71.32;;
70245;Laerm;57637;49.272;8.590;2023-03-01T15:35:47;45.74;40.43;54.81;;
70245;Laerm;57637;49.272;8.590;2023-03-01T15:43:48;46.15;42.56;55.24;;
70245;Laerm;57637;49.272;8.590;2023-03-01T15:46:21;46.52;42.35;55.78;;